sensor_id;sensor_type;location;lat;lon;timestamp;pressure;altitude;pressure_sealevel;temperature;humidity
5484;BME280;2764;48.794;8.326;2022-11-20T00:00:54;99467.28;;;6.75;100.00
5484;BME280;2764;48.794;8.326;2022-11-20T00:01:56;99472.38;;;6.78;100.00
5484;BME280;2764;48.794;8.326;2022-11-20T00:02:58;99470.56;;;6.80;100.00
5484;BME280;2764;48.794;8.326;2022-11-20T00:03:59;99464.53;;;6.80;100.00
5484;BME280;2764;48.794;8.326;2022-11-20T00:05:01;99472.28;;;6.81;100.00
5484;BME280;2764;48.794;8.326;2022-11-20T00:06:08;99467.97;;;6.80;100.00
5484;BME280;2764;48.794;8.326;2022-11-20T00:07:10;99465.38;;;6.80;100.00
5484;BME280;2764;48.794;8.326;2022-11-20T00:08:12;99472.31;;;6.80;100.00
5484;BME280;2764;48.794;8.326;2022-11-20T00:09:13;99471.47;;;6.79;100.00
5484;BME280;2764;48.794;8.326;2022-11-20T00:10:15;99474.97;;;6.78;100.00
5484;BME280;2764;48.794;8.326;2022-11-20T00:11:19;99473.22;;;6.79;100.00
5484;BME280;2764;48.794;8.326;2022-11-20T00:12:21;99468.81;;;6.81;100.00
5484;BME280;2764;48.794;8.326;2022-11-20T00:13:23;99465.22;;;6.85;100.00
5484;BME280;2764;48.794;8.326;2022-11-20T00:14:24;99477.06;;;6.93;100.00
5484;BME280;2764;48.794;8.326;2022-11-20T00:15:26;99475.22;;;6.97;100.00
5484;BME280;2764;48.794;8.326;2022-11-20T00:16:30;99470.88;;;6.97;100.00
5484;BME280;2764;48.794;8.326;2022-11-20T00:17:32;99473.31;;;7.02;100.00
5484;BME280;2764;48.794;8.326;2022-11-20T00:18:34;99474.16;;;7.02;100.00
5484;BME280;2764;48.794;8.326;2022-11-20T00:19:36;99479.34;;;7.02;100.00
5484;BME280;2764;48.794;8.326;2022-11-20T00:20:37;99477.66;;;7.01;100.00
5484;BME280;2764;48.794;8.326;2022-11-20T00:21:39;99478.31;;;7.08;100.00
5484;BME280;2764;48.794;8.326;2022-11-20T00:22:41;99483.34;;;7.13;100.00
5484;BME280;2764;48.794;8.326;2022-11-20T00:23:43;99485.84;;;7.16;100.00
5484;BME280;2764;48.794;8.326;2022-11-20T00:24:44;99480.66;;;7.16;100.00
5484;BME280;2764;48.794;8.326;2022-11-20T00:25:46;99480.59;;;7.17;100.00
5484;BME280;2764;48.794;8.326;2022-11-20T00:26:47;99483.09;;;7.20;100.00
5484;BME280;2764;48.794;8.326;2022-11-20T00:27:50;99483.91;;;7.21;100.00
5484;BME280;2764;48.794;8.326;2022-11-20T00:28:57;99480.50;;;7.20;100.00
5484;BME280;2764;48.794;8.326;2022-11-20T00:30:00;99493.34;;;7.25;100.00
5484;BME280;2764;48.794;8.326;2022-11-20T00:31:11;99485.53;;;7.25;100.00
5484;BME280;2764;48.794;8.326;2022-11-20T00:32:13;99489.66;;;7.30;100.00
5484;BME280;2764;48.794;8.326;2022-11-20T00:33:14;99486.13;;;7.33;100.00
5484;BME280;2764;48.794;8.326;2022-11-20T00:34:16;99488.72;;;7.33;100.00
5484;BME280;2764;48.794;8.326;2022-11-20T00:35:18;99488.63;;;7.36;100.00
5484;BME280;2764;48.794;8.326;2022-11-20T00:36:21;99490.28;;;7.37;100.00
5484;BME280;2764;48.794;8.326;2022-11-20T00:37:23;99456.13;;;7.23;100.00
5484;BME280;2764;48.794;8.326;2022-11-20T00:38:25;99488.53;;;7.39;100.00
5484;BME280;2764;48.794;8.326;2022-11-20T00:39:26;99491.84;;;7.42;100.00
5484;BME280;2764;48.794;8.326;2022-11-20T00:40:28;99488.28;;;7.45;100.00
5484;BME280;2764;48.794;8.326;2022-11-20T00:41:30;99489.88;;;7.49;100.00
5484;BME280;2764;48.794;8.326;2022-11-20T00:42:32;99488.19;;;7.48;100.00
5484;BME280;2764;48.794;8.326;2022-11-20T00:43:34;99490.75;;;7.49;100.00
5484;BME280;2764;48.794;8.326;2022-11-20T00:44:36;99493.25;;;7.52;100.00
5484;BME280;2764;48.794;8.326;2022-11-20T00:45:37;99491.25;;;7.59;100.00
5484;BME280;2764;48.794;8.326;2022-11-20T00:46:39;99490.41;;;7.58;100.00
5484;BME280;2764;48.794;8.326;2022-11-20T00:47:40;99489.56;;;7.58;100.00
5484;BME280;2764;48.794;8.326;2022-11-20T00:48:43;99482.59;;;7.58;100.00
5484;BME280;2764;48.794;8.326;2022-11-20T00:49:45;99486.13;;;7.57;100.00
5484;BME280;2764;48.794;8.326;2022-11-20T00:50:46;99491.34;;;7.57;100.00
5484;BME280;2764;48.794;8.326;2022-11-20T00:51:48;99488.72;;;7.57;100.00
5484;BME280;2764;48.794;8.326;2022-11-20T00:52:49;99487.00;;;7.56;100.00
5484;BME280;2764;48.794;8.326;2022-11-20T00:53:51;99501.78;;;7.56;100.00
5484;BME280;2764;48.794;8.326;2022-11-20T00:54:53;99486.16;;;7.56;100.00
5484;BME280;2764;48.794;8.326;2022-11-20T00:55:57;99490.56;;;7.54;100.00
5484;BME280;2764;48.794;8.326;2022-11-20T00:56:58;99488.88;;;7.53;100.00
5484;BME280;2764;48.794;8.326;2022-11-20T00:58:00;99491.47;;;7.53;100.00
5484;BME280;2764;48.794;8.326;2022-11-20T00:59:05;99482.75;;;7.54;100.00
5484;BME280;2764;48.794;8.326;2022-11-20T01:00:07;99485.31;;;7.55;100.00
5484;BME280;2764;48.794;8.326;2022-11-20T01:02:16;99487.13;;;7.53;100.00
5484;BME280;2764;48.794;8.326;2022-11-20T01:03:18;99461.66;;;7.38;100.00
5484;BME280;2764;48.794;8.326;2022-11-20T01:04:27;99485.38;;;7.54;100.00
5484;BME280;2764;48.794;8.326;2022-11-20T01:05:34;99468.38;;;7.44;100.00
5484;BME280;2764;48.794;8.326;2022-11-20T01:06:38;99486.06;;;7.59;100.00
5484;BME280;2764;48.794;8.326;2022-11-20T01:07:40;99490.34;;;7.60;100.00
5484;BME280;2764;48.794;8.326;2022-11-20T01:08:43;99486.00;;;7.60;100.00
5484;BME280;2764;48.794;8.326;2022-11-20T01:09:44;99476.38;;;7.62;100.00
5484;BME280;2764;48.794;8.326;2022-11-20T01:10:46;99478.94;;;7.64;100.00
5484;BME280;2764;48.794;8.326;2022-11-20T01:11:48;99481.47;;;7.65;100.00
5484;BME280;2764;48.794;8.326;2022-11-20T01:12:50;99487.41;;;7.69;100.00
5484;BME280;2764;48.794;8.326;2022-11-20T01:14:19;99477.75;;;7.72;100.00
5484;BME280;2764;48.794;8.326;2022-11-20T01:15:21;99476.91;;;7.72;100.00
5484;BME280;2764;48.794;8.326;2022-11-20T01:16:27;99485.34;;;7.78;100.00
5484;BME280;2764;48.794;8.326;2022-11-20T01:17:31;99481.09;;;7.76;100.00
5484;BME280;2764;48.794;8.326;2022-11-20T01:18:33;99481.03;;;7.77;100.00
5484;BME280;2764;48.794;8.326;2022-11-20T01:19:34;99467.44;;;7.69;100.00
5484;BME280;2764;48.794;8.326;2022-11-20T01:20:36;99473.69;;;7.65;100.00
5484;BME280;2764;48.794;8.326;2022-11-20T01:21:40;99481.31;;;7.70;100.00
5484;BME280;2764;48.794;8.326;2022-11-20T01:22:42;99476.97;;;7.70;100.00
5484;BME280;2764;48.794;8.326;2022-11-20T01:23:44;99487.47;;;7.67;100.00
5484;BME280;2764;48.794;8.326;2022-11-20T01:24:46;99486.69;;;7.65;100.00
5484;BME280;2764;48.794;8.326;2022-11-20T01:25:47;99484.03;;;7.67;100.00
5484;BME280;2764;48.794;8.326;2022-11-20T01:26:50;99480.47;;;7.69;100.00
5484;BME280;2764;48.794;8.326;2022-11-20T01:27:52;99482.06;;;7.73;100.00
5484;BME280;2764;48.794;8.326;2022-11-20T01:28:55;99479.97;;;7.83;100.00
5484;BME280;2764;48.794;8.326;2022-11-20T01:29:57;99478.28;;;7.82;100.00
5484;BME280;2764;48.794;8.326;2022-11-20T01:31:14;99481.72;;;7.83;100.00
5484;BME280;2764;48.794;8.326;2022-11-20T01:32:16;99484.34;;;7.83;100.00
5484;BME280;2764;48.794;8.326;2022-11-20T01:33:17;99485.91;;;7.87;100.00
5484;BME280;2764;48.794;8.326;2022-11-20T01:34:20;99485.84;;;7.88;100.00
5484;BME280;2764;48.794;8.326;2022-11-20T01:35:23;99486.78;;;7.87;100.00
5484;BME280;2764;48.794;8.326;2022-11-20T01:36:27;99490.16;;;7.89;100.00
5484;BME280;2764;48.794;8.326;2022-11-20T01:37:29;99482.47;;;7.86;100.00
5484;BME280;2764;48.794;8.326;2022-11-20T01:38:31;99479.13;;;7.83;100.00
5484;BME280;2764;48.794;8.326;2022-11-20T01:39:32;99480.59;;;7.90;100.00
5484;BME280;2764;48.794;8.326;2022-11-20T01:40:34;99484.09;;;7.89;100.00
5484;BME280;2764;48.794;8.326;2022-11-20T01:41:36;99482.34;;;7.89;100.00
5484;BME280;2764;48.794;8.326;2022-11-20T01:43:18;99480.59;;;7.90;100.00
5484;BME280;2764;48.794;8.326;2022-11-20T01:44:47;99476.13;;;7.93;100.00
5484;BME280;2764;48.794;8.326;2022-11-20T01:46:03;99476.19;;;7.92;100.00
5484;BME280;2764;48.794;8.326;2022-11-20T01:47:06;99475.41;;;7.90;100.00
5484;BME280;2764;48.794;8.326;2022-11-20T01:48:08;99479.63;;;7.92;100.00
5484;BME280;2764;48.794;8.326;2022-11-20T01:49:20;99489.19;;;7.92;100.00
5484;BME280;2764;48.794;8.326;2022-11-20T01:50:26;99485.75;;;7.91;100.00
5484;BME280;2764;48.794;8.326;2022-11-20T01:51:57;99478.03;;;7.88;100.00
5484;BME280;2764;48.794;8.326;2022-11-20T01:53:05;99486.63;;;7.90;100.00
5484;BME280;2764;48.794;8.326;2022-11-20T01:54:13;99485.75;;;7.91;100.00
5484;BME280;2764;48.794;8.326;2022-11-20T01:55:23;99485.75;;;7.91;100.00
5484;BME280;2764;48.794;8.326;2022-11-20T01:56:29;99479.75;;;7.89;100.00
5484;BME280;2764;48.794;8.326;2022-11-20T01:57:34;99486.63;;;7.90;100.00
5484;BME280;2764;48.794;8.326;2022-11-20T01:58:40;99481.31;;;7.93;100.00
5484;BME280;2764;48.794;8.326;2022-11-20T01:59:49;99479.63;;;7.92;100.00
5484;BME280;2764;48.794;8.326;2022-11-20T02:00:53;99474.41;;;7.92;100.00
5484;BME280;2764;48.794;8.326;2022-11-20T02:01:55;99474.47;;;7.91;100.00
5484;BME280;2764;48.794;8.326;2022-11-20T02:02:59;99478.72;;;7.93;100.00
5484;BME280;2764;48.794;8.326;2022-11-20T02:04:02;99483.13;;;7.91;100.00
5484;BME280;2764;48.794;8.326;2022-11-20T02:05:12;99480.59;;;7.90;100.00
5484;BME280;2764;48.794;8.326;2022-11-20T02:06:20;99482.47;;;7.86;100.00
5484;BME280;2764;48.794;8.326;2022-11-20T02:07:24;99474.72;;;7.85;100.00
5484;BME280;2764;48.794;8.326;2022-11-20T02:08:26;99479.91;;;7.85;100.00
5484;BME280;2764;48.794;8.326;2022-11-20T02:09:28;99471.50;;;7.78;100.00
5484;BME280;2764;48.794;8.326;2022-11-20T02:10:30;99476.56;;;7.81;100.00
5484;BME280;2764;48.794;8.326;2022-11-20T02:11:32;99485.16;;;7.83;100.00
5484;BME280;2764;48.794;8.326;2022-11-20T02:12:33;99477.34;;;7.83;100.00
5484;BME280;2764;48.794;8.326;2022-11-20T02:13:54;99471.34;;;7.81;100.00
5484;BME280;2764;48.794;8.326;2022-11-20T02:14:57;99475.72;;;7.80;100.00
5484;BME280;2764;48.794;8.326;2022-11-20T02:15:59;99471.69;;;7.72;100.00
5484;BME280;2764;48.794;8.326;2022-11-20T02:17:01;99467.41;;;7.71;100.00
5484;BME280;2764;48.794;8.326;2022-11-20T02:18:03;99470.13;;;7.68;100.00
5484;BME280;2764;48.794;8.326;2022-11-20T02:19:10;99470.13;;;7.68;100.00
5484;BME280;2764;48.794;8.326;2022-11-20T02:20:16;99458.84;;;7.67;100.00
5484;BME280;2764;48.794;8.326;2022-11-20T02:21:35;99464.00;;;7.69;100.00
5484;BME280;2764;48.794;8.326;2022-11-20T02:23:15;99463.09;;;7.70;100.00
5484;BME280;2764;48.794;8.326;2022-11-20T02:24:19;99464.91;;;7.68;100.00
5484;BME280;2764;48.794;8.326;2022-11-20T02:25:23;99454.03;;;7.57;100.00
5484;BME280;2764;48.794;8.326;2022-11-20T02:26:28;99473.16;;;7.56;100.00
5484;BME280;2764;48.794;8.326;2022-11-20T02:27:30;99467.22;;;7.52;100.00
5484;BME280;2764;48.794;8.326;2022-11-20T02:28:32;99462.13;;;7.49;100.00
5484;BME280;2764;48.794;8.326;2022-11-20T02:29:37;99464.66;;;7.51;100.00
5484;BME280;2764;48.794;8.326;2022-11-20T02:30:40;99482.22;;;7.46;100.00
5484;BME280;2764;48.794;8.326;2022-11-20T02:31:43;99472.75;;;7.43;100.00
5484;BME280;2764;48.794;8.326;2022-11-20T02:32:45;99465.91;;;7.41;100.00
5484;BME280;2764;48.794;8.326;2022-11-20T02:33:46;99468.59;;;7.38;100.00
5484;BME280;2764;48.794;8.326;2022-11-20T02:34:48;99470.47;;;7.34;100.00
5484;BME280;2764;48.794;8.326;2022-11-20T02:35:50;99461.13;;;7.29;100.00
5484;BME280;2764;48.794;8.326;2022-11-20T02:36:52;99473.75;;;7.39;100.00
5484;BME280;2764;48.794;8.326;2022-11-20T02:37:57;99462.59;;;7.36;100.00
5484;BME280;2764;48.794;8.326;2022-11-20T02:38:59;99479.59;;;7.46;100.00
5484;BME280;2764;48.794;8.326;2022-11-20T02:40:01;99467.38;;;7.48;100.00
5484;BME280;2764;48.794;8.326;2022-11-20T02:41:03;99468.22;;;7.48;100.00
5484;BME280;2764;48.794;8.326;2022-11-20T02:42:05;99467.38;;;7.48;100.00
5484;BME280;2764;48.794;8.326;2022-11-20T02:43:07;99463.13;;;7.45;100.00
5484;BME280;2764;48.794;8.326;2022-11-20T02:44:09;99457.41;;;7.36;100.00
5484;BME280;2764;48.794;8.326;2022-11-20T02:45:10;99463.50;;;7.35;100.00
5484;BME280;2764;48.794;8.326;2022-11-20T02:46:12;99467.75;;;7.37;100.00
5484;BME280;2764;48.794;8.326;2022-11-20T02:47:14;99471.91;;;7.43;100.00
5484;BME280;2764;48.794;8.326;2022-11-20T02:48:15;99469.28;;;7.43;100.00
5484;BME280;2764;48.794;8.326;2022-11-20T02:49:17;99471.84;;;7.44;100.00
5484;BME280;2764;48.794;8.326;2022-11-20T02:50:19;99465.84;;;7.42;100.00
5484;BME280;2764;48.794;8.326;2022-11-20T02:51:21;99465.91;;;7.41;100.00
5484;BME280;2764;48.794;8.326;2022-11-20T02:52:23;99469.41;;;7.40;100.00
5484;BME280;2764;48.794;8.326;2022-11-20T02:53:25;99462.19;;;7.48;100.00
5484;BME280;2764;48.794;8.326;2022-11-20T02:54:26;99464.81;;;7.46;100.00
5484;BME280;2764;48.794;8.326;2022-11-20T02:55:28;99477.09;;;7.43;100.00
5484;BME280;2764;48.794;8.326;2022-11-20T02:56:30;99468.34;;;7.45;100.00
5484;BME280;2764;48.794;8.326;2022-11-20T02:57:33;99469.19;;;7.46;100.00
5484;BME280;2764;48.794;8.326;2022-11-20T02:58:34;99465.78;;;7.44;100.00
5484;BME280;2764;48.794;8.326;2022-11-20T02:59:36;99471.91;;;7.43;100.00
5484;BME280;2764;48.794;8.326;2022-11-20T03:00:37;99476.19;;;7.44;100.00
5484;BME280;2764;48.794;8.326;2022-11-20T03:01:39;99471.81;;;7.46;100.00
5484;BME280;2764;48.794;8.326;2022-11-20T03:02:41;99473.31;;;7.51;100.00
5484;BME280;2764;48.794;8.326;2022-11-20T03:03:42;99468.97;;;7.52;100.00
5484;BME280;2764;48.794;8.326;2022-11-20T03:04:44;99474.09;;;7.53;100.00
5484;BME280;2764;48.794;8.326;2022-11-20T03:05:46;99475.81;;;7.54;100.00
5484;BME280;2764;48.794;8.326;2022-11-20T03:06:47;99468.97;;;7.52;100.00
5484;BME280;2764;48.794;8.326;2022-11-20T03:07:49;99466.25;;;7.55;100.00
5484;BME280;2764;48.794;8.326;2022-11-20T03:08:51;99475.75;;;7.56;100.00
5484;BME280;2764;48.794;8.326;2022-11-20T03:09:52;99470.44;;;7.59;100.00
5484;BME280;2764;48.794;8.326;2022-11-20T03:10:54;99467.00;;;7.58;100.00
5484;BME280;2764;48.794;8.326;2022-11-20T03:11:56;99470.50;;;7.57;100.00
5484;BME280;2764;48.794;8.326;2022-11-20T03:12:57;99472.09;;;7.61;100.00
5484;BME280;2764;48.794;8.326;2022-11-20T03:14:03;99479.03;;;7.61;100.00
5484;BME280;2764;48.794;8.326;2022-11-20T03:15:05;99469.53;;;7.60;100.00
5484;BME280;2764;48.794;8.326;2022-11-20T03:16:17;99476.44;;;7.61;100.00
5484;BME280;2764;48.794;8.326;2022-11-20T03:17:19;99492.94;;;7.60;100.00
5484;BME280;2764;48.794;8.326;2022-11-20T03:18:21;99474.47;;;7.67;100.00
5484;BME280;2764;48.794;8.326;2022-11-20T03:19:22;99477.81;;;7.71;100.00
5484;BME280;2764;48.794;8.326;2022-11-20T03:20:24;99476.91;;;7.72;100.00
5484;BME280;2764;48.794;8.326;2022-11-20T03:21:26;99468.41;;;7.67;100.00
5484;BME280;2764;48.794;8.326;2022-11-20T03:22:30;99476.03;;;7.71;100.00
5484;BME280;2764;48.794;8.326;2022-11-20T03:23:33;99461.63;;;7.63;100.00
5484;BME280;2764;48.794;8.326;2022-11-20T03:24:35;99456.69;;;7.55;100.00
5484;BME280;2764;48.794;8.326;2022-11-20T03:25:36;99476.03;;;7.71;100.00
5484;BME280;2764;48.794;8.326;2022-11-20T03:26:38;99477.75;;;7.72;100.00
5484;BME280;2764;48.794;8.326;2022-11-20T03:27:40;99474.28;;;7.72;100.00
5484;BME280;2764;48.794;8.326;2022-11-20T03:28:46;99477.75;;;7.72;100.00
5484;BME280;2764;48.794;8.326;2022-11-20T03:29:48;99474.97;;;7.77;100.00
5484;BME280;2764;48.794;8.326;2022-11-20T03:30:50;99468.88;;;7.78;100.00
5484;BME280;2764;48.794;8.326;2022-11-20T03:31:51;99476.69;;;7.78;100.00
5484;BME280;2764;48.794;8.326;2022-11-20T03:32:53;99470.72;;;7.74;100.00
5484;BME280;2764;48.794;8.326;2022-11-20T03:33:56;99468.13;;;7.74;100.00
5484;BME280;2764;48.794;8.326;2022-11-20T03:34:59;99472.47;;;7.74;100.00
5484;BME280;2764;48.794;8.326;2022-11-20T03:36:02;99476.88;;;7.73;100.00
5484;BME280;2764;48.794;8.326;2022-11-20T03:37:04;99469.88;;;7.74;100.00
5484;BME280;2764;48.794;8.326;2022-11-20T03:38:05;99476.88;;;7.73;100.00
5484;BME280;2764;48.794;8.326;2022-11-20T03:39:07;99474.13;;;7.76;100.00
5484;BME280;2764;48.794;8.326;2022-11-20T03:40:09;99475.78;;;7.79;100.00
5484;BME280;2764;48.794;8.326;2022-11-20T03:41:16;99457.66;;;7.76;100.00
5484;BME280;2764;48.794;8.326;2022-11-20T03:42:18;99471.25;;;7.84;100.00
5484;BME280;2764;48.794;8.326;2022-11-20T03:43:39;99467.00;;;7.82;100.00
5484;BME280;2764;48.794;8.326;2022-11-20T03:44:41;99462.66;;;7.82;100.00
5484;BME280;2764;48.794;8.326;2022-11-20T03:45:43;99465.28;;;7.80;100.00
5484;BME280;2764;48.794;8.326;2022-11-20T03:46:44;99467.97;;;7.79;100.00
5484;BME280;2764;48.794;8.326;2022-11-20T03:47:46;99466.13;;;7.83;100.00
5484;BME280;2764;48.794;8.326;2022-11-20T03:48:48;99479.84;;;7.86;100.00
5484;BME280;2764;48.794;8.326;2022-11-20T03:49:53;99471.19;;;7.86;100.00
5484;BME280;2764;48.794;8.326;2022-11-20T03:51:16;99472.03;;;7.86;100.00
5484;BME280;2764;48.794;8.326;2022-11-20T03:52:18;99470.31;;;7.85;100.00
5484;BME280;2764;48.794;8.326;2022-11-20T03:53:19;99465.25;;;7.82;100.00
5484;BME280;2764;48.794;8.326;2022-11-20T03:54:21;99470.31;;;7.85;100.00
5484;BME280;2764;48.794;8.326;2022-11-20T03:55:23;99466.91;;;7.85;100.00
5484;BME280;2764;48.794;8.326;2022-11-20T03:56:27;99461.72;;;7.83;100.00
5484;BME280;2764;48.794;8.326;2022-11-20T03:57:29;99466.94;;;7.83;100.00
5484;BME280;2764;48.794;8.326;2022-11-20T03:58:30;99468.59;;;7.86;100.00
5484;BME280;2764;48.794;8.326;2022-11-20T03:59:32;99469.44;;;7.86;100.00
5484;BME280;2764;48.794;8.326;2022-11-20T04:00:34;99471.19;;;7.86;100.00
5484;BME280;2764;48.794;8.326;2022-11-20T04:01:36;99467.72;;;7.85;100.00
5484;BME280;2764;48.794;8.326;2022-11-20T04:02:48;99472.72;;;7.91;100.00
5484;BME280;2764;48.794;8.326;2022-11-20T04:03:52;99470.19;;;7.90;100.00
5484;BME280;2764;48.794;8.326;2022-11-20T04:04:53;99464.13;;;7.89;100.00
5484;BME280;2764;48.794;8.326;2022-11-20T04:05:55;99472.66;;;7.93;100.00
5484;BME280;2764;48.794;8.326;2022-11-20T04:07:02;99453.81;;;7.86;100.00
5484;BME280;2764;48.794;8.326;2022-11-20T04:08:04;99477.00;;;7.92;100.00
5484;BME280;2764;48.794;8.326;2022-11-20T04:09:06;99463.22;;;7.90;100.00
5484;BME280;2764;48.794;8.326;2022-11-20T04:10:08;99469.28;;;7.91;100.00
5484;BME280;2764;48.794;8.326;2022-11-20T04:11:18;99467.53;;;7.91;100.00
5484;BME280;2764;48.794;8.326;2022-11-20T04:12:20;99466.78;;;7.88;100.00
5484;BME280;2764;48.794;8.326;2022-11-20T04:13:21;99455.63;;;7.84;100.00
5484;BME280;2764;48.794;8.326;2022-11-20T04:14:23;99468.53;;;7.87;100.00
5484;BME280;2764;48.794;8.326;2022-11-20T04:15:25;99468.66;;;7.84;100.00
5484;BME280;2764;48.794;8.326;2022-11-20T04:16:30;99466.13;;;7.83;100.00
5484;BME280;2764;48.794;8.326;2022-11-20T04:17:32;99479.13;;;7.83;100.00
5484;BME280;2764;48.794;8.326;2022-11-20T04:18:34;99465.25;;;7.82;100.00
5484;BME280;2764;48.794;8.326;2022-11-20T04:19:36;99473.84;;;7.84;100.00
5484;BME280;2764;48.794;8.326;2022-11-20T04:20:37;99466.91;;;7.85;100.00
5484;BME280;2764;48.794;8.326;2022-11-20T04:21:39;99464.31;;;7.85;100.00
5484;BME280;2764;48.794;8.326;2022-11-20T04:22:41;99465.97;;;7.86;100.00
5484;BME280;2764;48.794;8.326;2022-11-20T04:23:42;99459.91;;;7.85;100.00
5484;BME280;2764;48.794;8.326;2022-11-20T04:24:44;99465.94;;;7.87;100.00
5484;BME280;2764;48.794;8.326;2022-11-20T04:25:45;99457.28;;;7.87;100.00
5484;BME280;2764;48.794;8.326;2022-11-20T04:26:47;99452.09;;;7.85;100.00
5484;BME280;2764;48.794;8.326;2022-11-20T04:27:49;99448.84;;;7.80;100.00
5484;BME280;2764;48.794;8.326;2022-11-20T04:28:50;99449.50;;;7.85;100.00
5484;BME280;2764;48.794;8.326;2022-11-20T04:29:52;99459.97;;;7.84;100.00
5484;BME280;2764;48.794;8.326;2022-11-20T04:30:53;99462.66;;;7.82;100.00
5484;BME280;2764;48.794;8.326;2022-11-20T04:31:55;99462.53;;;7.85;100.00
5484;BME280;2764;48.794;8.326;2022-11-20T04:32:57;99456.59;;;7.82;100.00
5484;BME280;2764;48.794;8.326;2022-11-20T04:34:02;99452.19;;;7.84;100.00
5484;BME280;2764;48.794;8.326;2022-11-20T04:35:04;99444.47;;;7.80;100.00
5484;BME280;2764;48.794;8.326;2022-11-20T04:36:12;99449.69;;;7.80;100.00
5484;BME280;2764;48.794;8.326;2022-11-20T04:37:14;99462.75;;;7.79;100.00
5484;BME280;2764;48.794;8.326;2022-11-20T04:38:16;99451.66;;;7.74;100.00
5484;BME280;2764;48.794;8.326;2022-11-20T04:39:17;99456.16;;;7.70;100.00
5484;BME280;2764;48.794;8.326;2022-11-20T04:40:19;99456.31;;;7.66;100.00
5484;BME280;2764;48.794;8.326;2022-11-20T04:41:23;99448.59;;;7.63;100.00
5484;BME280;2764;48.794;8.326;2022-11-20T04:42:25;99455.69;;;7.59;100.00
5484;BME280;2764;48.794;8.326;2022-11-20T04:43:32;99453.09;;;7.59;100.00
5484;BME280;2764;48.794;8.326;2022-11-20T04:44:34;99453.97;;;7.58;100.00
5484;BME280;2764;48.794;8.326;2022-11-20T04:45:36;99452.34;;;7.56;100.00
5484;BME280;2764;48.794;8.326;2022-11-20T04:46:40;99454.16;;;7.54;100.00
5484;BME280;2764;48.794;8.326;2022-11-20T04:47:42;99461.16;;;7.52;100.00
5484;BME280;2764;48.794;8.326;2022-11-20T04:48:44;99456.06;;;7.49;100.00
5484;BME280;2764;48.794;8.326;2022-11-20T04:49:46;99450.84;;;7.49;100.00
5484;BME280;2764;48.794;8.326;2022-11-20T04:50:47;99454.22;;;7.52;100.00
5484;BME280;2764;48.794;8.326;2022-11-20T04:51:53;99446.50;;;7.49;100.00
5484;BME280;2764;48.794;8.326;2022-11-20T04:52:54;99451.59;;;7.52;100.00
5484;BME280;2764;48.794;8.326;2022-11-20T04:53:56;99451.66;;;7.51;100.00
5484;BME280;2764;48.794;8.326;2022-11-20T04:54:57;99461.31;;;7.47;100.00
5484;BME280;2764;48.794;8.326;2022-11-20T04:56:10;99463.00;;;7.48;100.00
5484;BME280;2764;48.794;8.326;2022-11-20T04:57:13;99451.66;;;7.51;100.00
5484;BME280;2764;48.794;8.326;2022-11-20T04:58:15;99451.78;;;7.48;100.00
5484;BME280;2764;48.794;8.326;2022-11-20T04:59:17;99456.06;;;7.49;100.00
5484;BME280;2764;48.794;8.326;2022-11-20T05:00:19;99462.28;;;7.45;100.00
5484;BME280;2764;48.794;8.326;2022-11-20T05:01:23;99459.00;;;7.40;100.00
5484;BME280;2764;48.794;8.326;2022-11-20T05:02:25;99454.81;;;7.36;100.00
5484;BME280;2764;48.794;8.326;2022-11-20T05:03:27;99456.63;;;7.34;100.00
5484;BME280;2764;48.794;8.326;2022-11-20T05:04:28;99456.66;;;7.32;100.00
5484;BME280;2764;48.794;8.326;2022-11-20T05:05:30;99459.38;;;7.29;100.00
5484;BME280;2764;48.794;8.326;2022-11-20T05:06:32;99453.47;;;7.24;100.00
5484;BME280;2764;48.794;8.326;2022-11-20T05:07:34;99454.44;;;7.22;100.00
5484;BME280;2764;48.794;8.326;2022-11-20T05:08:36;99450.09;;;7.22;100.00
5484;BME280;2764;48.794;8.326;2022-11-20T05:09:37;99459.72;;;7.19;100.00
5484;BME280;2764;48.794;8.326;2022-11-20T05:10:39;99446.06;;;7.14;100.00
5484;BME280;2764;48.794;8.326;2022-11-20T05:11:41;99448.66;;;7.14;100.00
5484;BME280;2764;48.794;8.326;2022-11-20T05:12:42;99457.25;;;7.16;100.00
5484;BME280;2764;48.794;8.326;2022-11-20T05:13:44;99446.16;;;7.11;100.00
5484;BME280;2764;48.794;8.326;2022-11-20T05:14:46;99444.50;;;7.08;100.00
5484;BME280;2764;48.794;8.326;2022-11-20T05:15:48;99455.06;;;7.03;100.00
5484;BME280;2764;48.794;8.326;2022-11-20T05:16:50;99443.00;;;7.01;100.00
5484;BME280;2764;48.794;8.326;2022-11-20T05:17:52;99445.63;;;7.01;100.00
5484;BME280;2764;48.794;8.326;2022-11-20T05:18:54;99448.28;;;6.99;100.00
5484;BME280;2764;48.794;8.326;2022-11-20T05:19:56;99443.97;;;6.98;100.00
5484;BME280;2764;48.794;8.326;2022-11-20T05:20:58;99445.72;;;6.98;100.00
5484;BME280;2764;48.794;8.326;2022-11-20T05:22:00;99446.66;;;6.95;100.00
5484;BME280;2764;48.794;8.326;2022-11-20T05:23:02;99441.53;;;6.94;100.00
5484;BME280;2764;48.794;8.326;2022-11-20T05:24:03;99439.06;;;6.89;100.00
5484;BME280;2764;48.794;8.326;2022-11-20T05:25:06;99436.56;;;6.86;100.00
5484;BME280;2764;48.794;8.326;2022-11-20T05:26:13;99436.69;;;6.83;100.00
5484;BME280;2764;48.794;8.326;2022-11-20T05:27:15;99444.44;;;6.85;100.00
5484;BME280;2764;48.794;8.326;2022-11-20T05:28:17;99441.03;;;6.83;100.00
5484;BME280;2764;48.794;8.326;2022-11-20T05:29:18;99433.34;;;6.80;100.00
5484;BME280;2764;48.794;8.326;2022-11-20T05:30:21;99407.81;;;6.66;100.00
5484;BME280;2764;48.794;8.326;2022-11-20T05:31:23;99437.66;;;6.81;100.00
5484;BME280;2764;48.794;8.326;2022-11-20T05:32:28;99437.66;;;6.81;100.00
5484;BME280;2764;48.794;8.326;2022-11-20T05:33:30;99429.34;;;6.70;100.00
5484;BME280;2764;48.794;8.326;2022-11-20T05:34:32;99440.97;;;6.84;100.00
5484;BME280;2764;48.794;8.326;2022-11-20T05:35:33;99437.50;;;6.85;100.00
5484;BME280;2764;48.794;8.326;2022-11-20T05:36:35;99438.28;;;6.87;100.00
5484;BME280;2764;48.794;8.326;2022-11-20T05:37:36;99417.03;;;6.75;100.00
5484;BME280;2764;48.794;8.326;2022-11-20T05:38:38;99434.81;;;6.87;100.00
5484;BME280;2764;48.794;8.326;2022-11-20T05:39:40;99433.09;;;6.87;100.00
5484;BME280;2764;48.794;8.326;2022-11-20T05:40:42;99433.97;;;6.86;100.00
5484;BME280;2764;48.794;8.326;2022-11-20T05:41:44;99435.78;;;6.84;100.00
5484;BME280;2764;48.794;8.326;2022-11-20T05:42:46;99440.97;;;6.84;100.00
5484;BME280;2764;48.794;8.326;2022-11-20T05:43:49;99430.63;;;6.83;100.00
5484;BME280;2764;48.794;8.326;2022-11-20T05:44:51;99435.78;;;6.84;100.00
5484;BME280;2764;48.794;8.326;2022-11-20T05:45:53;99435.75;;;6.86;100.00
5484;BME280;2764;48.794;8.326;2022-11-20T05:46:56;99443.25;;;6.93;100.00